sensor_id;sensor_type;location;lat;lon;timestamp;pressure;altitude;pressure_sealevel;temperature;humidity
5053;BME280;2545;50.892;5.740;2023-05-11T00:01:14;56319.94;;;-142.21;100.00
5053;BME280;2545;50.892;5.740;2023-05-11T00:03:40;56335.63;;;-142.21;100.00
5053;BME280;2545;50.892;5.740;2023-05-11T00:06:05;56374.84;;;-142.21;100.00
5053;BME280;2545;50.892;5.740;2023-05-11T00:08:31;56331.72;;;-142.21;100.00
5053;BME280;2545;50.892;5.740;2023-05-11T00:10:56;56327.78;;;-142.21;100.00
5053;BME280;2545;50.892;5.740;2023-05-11T00:13:21;56314.06;;;-142.21;100.00
5053;BME280;2545;50.892;5.740;2023-05-11T00:15:47;56312.09;;;-142.21;100.00
5053;BME280;2545;50.892;5.740;2023-05-11T00:18:12;56312.09;;;-142.21;100.00
5053;BME280;2545;50.892;5.740;2023-05-11T00:20:37;56319.94;;;-142.21;100.00
5053;BME280;2545;50.892;5.740;2023-05-11T00:23:03;56345.44;;;-142.21;100.00
5053;BME280;2545;50.892;5.740;2023-05-11T00:25:28;56339.56;;;-142.21;100.00
5053;BME280;2545;50.892;5.740;2023-05-11T00:27:53;56294.47;;;-142.21;100.00
5053;BME280;2545;50.892;5.740;2023-05-11T00:30:19;56308.19;;;-142.21;100.00
5053;BME280;2545;50.892;5.740;2023-05-11T00:32:44;56312.09;;;-142.21;100.00
5053;BME280;2545;50.892;5.740;2023-05-11T00:35:10;56292.50;;;-142.21;100.00
5053;BME280;2545;50.892;5.740;2023-05-11T00:37:37;56323.88;;;-142.21;100.00
5053;BME280;2545;50.892;5.740;2023-05-11T00:40:03;56312.09;;;-142.21;100.00
5053;BME280;2545;50.892;5.740;2023-05-11T00:42:29;56329.75;;;-142.21;100.00
5053;BME280;2545;50.892;5.740;2023-05-11T00:44:54;56341.53;;;-142.21;100.00
5053;BME280;2545;50.892;5.740;2023-05-11T00:47:19;56349.38;;;-142.21;100.00
5053;BME280;2545;50.892;5.740;2023-05-11T00:49:45;56335.63;;;-142.21;100.00
5053;BME280;2545;50.892;5.740;2023-05-11T00:52:10;56317.97;;;-142.21;100.00
5053;BME280;2545;50.892;5.740;2023-05-11T00:54:36;56292.50;;;-142.21;100.00
5053;BME280;2545;50.892;5.740;2023-05-11T00:57:02;56339.56;;;-142.21;100.00
5053;BME280;2545;50.892;5.740;2023-05-11T00:59:28;56319.94;;;-142.21;100.00
5053;BME280;2545;50.892;5.740;2023-05-11T01:01:53;56335.63;;;-142.21;100.00
5053;BME280;2545;50.892;5.740;2023-05-11T01:04:19;56327.78;;;-142.21;100.00
5053;BME280;2545;50.892;5.740;2023-05-11T01:12:52;56312.09;;;-142.21;100.00
5053;BME280;2545;50.892;5.740;2023-05-11T01:15:49;56331.72;;;-142.21;100.00
5053;BME280;2545;50.892;5.740;2023-05-11T01:18:41;56327.78;;;-142.21;100.00
5053;BME280;2545;50.892;5.740;2023-05-11T01:21:08;56300.34;;;-142.21;100.00
5053;BME280;2545;50.892;5.740;2023-05-11T01:26:36;56319.94;;;-142.21;100.00
5053;BME280;2545;50.892;5.740;2023-05-11T01:31:53;56331.72;;;-142.21;100.00
5053;BME280;2545;50.892;5.740;2023-05-11T01:34:24;56351.31;;;-142.21;100.00
5053;BME280;2545;50.892;5.740;2023-05-11T01:36:53;56333.69;;;-142.21;100.00
5053;BME280;2545;50.892;5.740;2023-05-11T01:39:25;56298.38;;;-142.21;100.00
5053;BME280;2545;50.892;5.740;2023-05-11T01:41:52;56331.72;;;-142.21;100.00
5053;BME280;2545;50.892;5.740;2023-05-11T01:44:20;56296.41;;;-142.21;100.00
5053;BME280;2545;50.892;5.740;2023-05-11T01:46:48;56296.41;;;-142.21;100.00
5053;BME280;2545;50.892;5.740;2023-05-11T01:49:16;56310.13;;;-142.21;100.00
5053;BME280;2545;50.892;5.740;2023-05-11T01:51:42;56323.88;;;-142.21;100.00
5053;BME280;2545;50.892;5.740;2023-05-11T01:54:10;56292.50;;;-142.21;100.00
5053;BME280;2545;50.892;5.740;2023-05-11T01:56:37;56323.88;;;-142.21;100.00
5053;BME280;2545;50.892;5.740;2023-05-11T01:59:04;56345.44;;;-142.21;100.00
5053;BME280;2545;50.892;5.740;2023-05-11T02:01:32;56341.53;;;-142.21;100.00
5053;BME280;2545;50.892;5.740;2023-05-11T02:04:02;56317.97;;;-142.21;100.00
5053;BME280;2545;50.892;5.740;2023-05-11T02:06:29;56304.25;;;-142.21;100.00
5053;BME280;2545;50.892;5.740;2023-05-11T02:08:57;56323.88;;;-142.21;100.00
5053;BME280;2545;50.892;5.740;2023-05-11T02:11:25;56300.34;;;-142.21;100.00
5053;BME280;2545;50.892;5.740;2023-05-11T02:13:52;56319.94;;;-142.21;100.00
5053;BME280;2545;50.892;5.740;2023-05-11T02:16:20;56347.41;;;-142.21;100.00
5053;BME280;2545;50.892;5.740;2023-05-11T02:18:46;56308.19;;;-142.21;100.00
5053;BME280;2545;50.892;5.740;2023-05-11T02:21:14;56343.47;;;-142.21;100.00
5053;BME280;2545;50.892;5.740;2023-05-11T02:23:40;56325.84;;;-142.21;100.00
5053;BME280;2545;50.892;5.740;2023-05-11T02:26:08;56325.84;;;-142.21;100.00
5053;BME280;2545;50.892;5.740;2023-05-11T02:28:34;56349.38;;;-142.21;100.00
5053;BME280;2545;50.892;5.740;2023-05-11T02:31:04;56316.03;;;-142.21;100.00
5053;BME280;2545;50.892;5.740;2023-05-11T02:33:42;56343.47;;;-142.21;100.00
5053;BME280;2545;50.892;5.740;2023-05-11T02:36:09;56337.59;;;-142.21;100.00
5053;BME280;2545;50.892;5.740;2023-05-11T02:38:38;56327.78;;;-142.21;100.00
5053;BME280;2545;50.892;5.740;2023-05-11T02:41:06;56347.41;;;-142.21;100.00
5053;BME280;2545;50.892;5.740;2023-05-11T02:43:35;56304.25;;;-142.21;100.00
5053;BME280;2545;50.892;5.740;2023-05-11T02:46:08;56327.78;;;-142.21;100.00
5053;BME280;2545;50.892;5.740;2023-05-11T02:48:41;56316.03;;;-142.21;100.00
5053;BME280;2545;50.892;5.740;2023-05-11T02:51:09;56386.63;;;-142.21;100.00
5053;BME280;2545;50.892;5.740;2023-05-11T02:53:36;56319.94;;;-142.21;100.00
5053;BME280;2545;50.892;5.740;2023-05-11T02:56:02;56365.06;;;-142.21;100.00
5053;BME280;2545;50.892;5.740;2023-05-11T02:58:28;56317.97;;;-142.21;100.00
5053;BME280;2545;50.892;5.740;2023-05-11T03:00:54;56317.97;;;-142.21;100.00
5053;BME280;2545;50.892;5.740;2023-05-11T03:03:20;56282.69;;;-142.21;100.00
5053;BME280;2545;50.892;5.740;2023-05-11T03:05:45;56333.69;;;-142.21;100.00
5053;BME280;2545;50.892;5.740;2023-05-11T03:08:11;56329.75;;;-142.21;100.00
5053;BME280;2545;50.892;5.740;2023-05-11T03:10:36;56319.94;;;-142.21;100.00
5053;BME280;2545;50.892;5.740;2023-05-11T03:13:03;56308.19;;;-142.21;100.00
5053;BME280;2545;50.892;5.740;2023-05-11T03:15:29;56323.88;;;-142.21;100.00
5053;BME280;2545;50.892;5.740;2023-05-11T03:17:56;56341.53;;;-142.21;100.00
5053;BME280;2545;50.892;5.740;2023-05-11T03:20:23;56333.69;;;-142.21;100.00
5053;BME280;2545;50.892;5.740;2023-05-11T03:22:50;56319.94;;;-142.21;100.00
5053;BME280;2545;50.892;5.740;2023-05-11T03:25:16;56306.22;;;-142.21;100.00
5053;BME280;2545;50.892;5.740;2023-05-11T03:27:42;56319.94;;;-142.21;100.00
5053;BME280;2545;50.892;5.740;2023-05-11T03:30:10;56327.78;;;-142.21;100.00
5053;BME280;2545;50.892;5.740;2023-05-11T03:32:36;56347.41;;;-142.21;100.00
5053;BME280;2545;50.892;5.740;2023-05-11T03:35:01;56323.88;;;-142.21;100.00
5053;BME280;2545;50.892;5.740;2023-05-11T03:37:28;56317.97;;;-142.21;100.00
5053;BME280;2545;50.892;5.740;2023-05-11T03:39:58;56296.41;;;-142.21;100.00
5053;BME280;2545;50.892;5.740;2023-05-11T03:42:25;56329.75;;;-142.21;100.00
5053;BME280;2545;50.892;5.740;2023-05-11T03:44:52;56323.88;;;-142.21;100.00
5053;BME280;2545;50.892;5.740;2023-05-11T03:47:20;56321.91;;;-142.21;100.00
5053;BME280;2545;50.892;5.740;2023-05-11T03:49:46;56372.91;;;-142.21;100.00
5053;BME280;2545;50.892;5.740;2023-05-11T03:52:12;56312.09;;;-142.21;100.00
5053;BME280;2545;50.892;5.740;2023-05-11T03:54:38;56325.84;;;-142.21;100.00
5053;BME280;2545;50.892;5.740;2023-05-11T03:57:03;56347.41;;;-142.21;100.00
5053;BME280;2545;50.892;5.740;2023-05-11T03:59:28;56359.16;;;-142.21;100.00
5053;BME280;2545;50.892;5.740;2023-05-11T04:01:54;56294.47;;;-142.21;100.00
5053;BME280;2545;50.892;5.740;2023-05-11T04:04:27;56323.88;;;-142.21;100.00
5053;BME280;2545;50.892;5.740;2023-05-11T04:06:53;56333.69;;;-142.21;100.00
5053;BME280;2545;50.892;5.740;2023-05-11T04:09:18;56317.97;;;-142.21;100.00
5053;BME280;2545;50.892;5.740;2023-05-11T04:11:44;56325.84;;;-142.21;100.00
5053;BME280;2545;50.892;5.740;2023-05-11T04:14:09;56337.59;;;-142.21;100.00
5053;BME280;2545;50.892;5.740;2023-05-11T04:16:34;56390.53;;;-142.21;100.00
5053;BME280;2545;50.892;5.740;2023-05-11T04:19:00;56335.63;;;-142.21;100.00
5053;BME280;2545;50.892;5.740;2023-05-11T04:21:26;56337.59;;;-142.21;100.00
5053;BME280;2545;50.892;5.740;2023-05-11T04:23:51;56359.16;;;-142.21;100.00
5053;BME280;2545;50.892;5.740;2023-05-11T04:26:16;56363.09;;;-142.21;100.00
5053;BME280;2545;50.892;5.740;2023-05-11T04:28:41;56341.53;;;-142.21;100.00
5053;BME280;2545;50.892;5.740;2023-05-11T04:31:07;56343.47;;;-142.21;100.00
5053;BME280;2545;50.892;5.740;2023-05-11T04:33:32;56321.91;;;-142.21;100.00
5053;BME280;2545;50.892;5.740;2023-05-11T04:35:57;56343.47;;;-142.21;100.00
5053;BME280;2545;50.892;5.740;2023-05-11T04:38:23;56319.94;;;-142.21;100.00
5053;BME280;2545;50.892;5.740;2023-05-11T04:40:48;56331.72;;;-142.21;100.00
5053;BME280;2545;50.892;5.740;2023-05-11T04:43:14;56323.88;;;-142.21;100.00
5053;BME280;2545;50.892;5.740;2023-05-11T04:45:40;56312.09;;;-142.21;100.00
5053;BME280;2545;50.892;5.740;2023-05-11T04:48:05;56382.69;;;-142.21;100.00
5053;BME280;2545;50.892;5.740;2023-05-11T04:50:31;56292.50;;;-142.21;100.00
5053;BME280;2545;50.892;5.740;2023-05-11T04:52:57;56327.78;;;-142.21;100.00
5053;BME280;2545;50.892;5.740;2023-05-11T04:55:22;56353.28;;;-142.21;100.00
5053;BME280;2545;50.892;5.740;2023-05-11T04:57:47;56349.38;;;-142.21;100.00
5053;BME280;2545;50.892;5.740;2023-05-11T05:00:13;56300.34;;;-142.21;100.00
5053;BME280;2545;50.892;5.740;2023-05-11T05:02:38;56353.28;;;-142.21;100.00
5053;BME280;2545;50.892;5.740;2023-05-11T05:05:04;56349.38;;;-142.21;100.00
5053;BME280;2545;50.892;5.740;2023-05-11T05:07:29;56304.25;;;-142.21;100.00
5053;BME280;2545;50.892;5.740;2023-05-11T05:09:54;56361.13;;;-142.21;100.00
5053;BME280;2545;50.892;5.740;2023-05-11T05:12:20;56363.09;;;-142.21;100.00
5053;BME280;2545;50.892;5.740;2023-05-11T05:14:45;56353.28;;;-142.21;100.00
5053;BME280;2545;50.892;5.740;2023-05-11T05:17:10;56302.28;;;-142.21;100.00
5053;BME280;2545;50.892;5.740;2023-05-11T05:19:35;56329.75;;;-142.21;100.00
5053;BME280;2545;50.892;5.740;2023-05-11T05:22:01;56323.88;;;-142.21;100.00
5053;BME280;2545;50.892;5.740;2023-05-11T05:24:27;56312.09;;;-142.21;100.00
5053;BME280;2545;50.892;5.740;2023-05-11T05:26:52;56337.59;;;-142.21;100.00
5053;BME280;2545;50.892;5.740;2023-05-11T05:29:17;56319.94;;;-142.21;100.00
5053;BME280;2545;50.892;5.740;2023-05-11T05:31:43;56325.84;;;-142.21;100.00
5053;BME280;2545;50.892;5.740;2023-05-11T05:34:08;56321.91;;;-142.21;100.00
5053;BME280;2545;50.892;5.740;2023-05-11T05:36:33;56321.91;;;-142.21;100.00
5053;BME280;2545;50.892;5.740;2023-05-11T05:38:58;56265.03;;;-142.21;100.00
5053;BME280;2545;50.892;5.740;2023-05-11T05:41:24;56333.69;;;-142.21;100.00
5053;BME280;2545;50.892;5.740;2023-05-11T05:43:49;56312.09;;;-142.21;100.00
5053;BME280;2545;50.892;5.740;2023-05-11T05:46:15;56355.25;;;-142.21;100.00
5053;BME280;2545;50.892;5.740;2023-05-11T05:48:41;56312.09;;;-142.21;100.00
5053;BME280;2545;50.892;5.740;2023-05-11T05:51:06;56329.75;;;-142.21;100.00
5053;BME280;2545;50.892;5.740;2023-05-11T05:53:32;56304.25;;;-142.21;100.00
5053;BME280;2545;50.892;5.740;2023-05-11T05:55:57;56308.19;;;-142.21;100.00
5053;BME280;2545;50.892;5.740;2023-05-11T05:58:23;56323.88;;;-142.21;100.00
5053;BME280;2545;50.892;5.740;2023-05-11T06:00:48;56310.13;;;-142.21;100.00
5053;BME280;2545;50.892;5.740;2023-05-11T06:03:13;56337.59;;;-142.21;100.00
5053;BME280;2545;50.892;5.740;2023-05-11T06:05:39;56312.09;;;-142.21;100.00
5053;BME280;2545;50.892;5.740;2023-05-11T06:08:04;56241.50;;;-142.21;100.00
5053;BME280;2545;50.892;5.740;2023-05-11T06:10:29;56323.88;;;-142.21;100.00
5053;BME280;2545;50.892;5.740;2023-05-11T06:12:55;56312.09;;;-142.21;100.00
5053;BME280;2545;50.892;5.740;2023-05-11T06:15:20;56341.53;;;-142.21;100.00
5053;BME280;2545;50.892;5.740;2023-05-11T06:17:45;56321.91;;;-142.21;100.00
5053;BME280;2545;50.892;5.740;2023-05-11T06:20:11;56321.91;;;-142.21;100.00
5053;BME280;2545;50.892;5.740;2023-05-11T06:22:37;56288.56;;;-142.21;100.00
5053;BME280;2545;50.892;5.740;2023-05-11T06:25:02;56333.69;;;-142.21;100.00
5053;BME280;2545;50.892;5.740;2023-05-11T06:27:27;56253.28;;;-142.21;100.00
5053;BME280;2545;50.892;5.740;2023-05-11T06:29:53;56292.50;;;-142.21;100.00
5053;BME280;2545;50.892;5.740;2023-05-11T06:32:18;56308.19;;;-142.21;100.00
5053;BME280;2545;50.892;5.740;2023-05-11T06:34:44;56325.84;;;-142.21;100.00
5053;BME280;2545;50.892;5.740;2023-05-11T06:37:09;56284.66;;;-142.21;100.00
5053;BME280;2545;50.892;5.740;2023-05-11T06:39:35;56319.94;;;-142.21;100.00
5053;BME280;2545;50.892;5.740;2023-05-11T06:42:02;56302.28;;;-142.21;100.00
5053;BME280;2545;50.892;5.740;2023-05-11T06:44:27;56335.63;;;-142.21;100.00
5053;BME280;2545;50.892;5.740;2023-05-11T06:46:52;56310.13;;;-142.21;100.00
5053;BME280;2545;50.892;5.740;2023-05-11T06:49:18;56304.25;;;-142.21;100.00
5053;BME280;2545;50.892;5.740;2023-05-11T06:51:43;56347.41;;;-142.21;100.00
5053;BME280;2545;50.892;5.740;2023-05-11T06:54:08;56310.13;;;-142.21;100.00
5053;BME280;2545;50.892;5.740;2023-05-11T06:56:34;56268.97;;;-142.21;100.00
5053;BME280;2545;50.892;5.740;2023-05-11T06:58:59;56353.28;;;-142.21;100.00
5053;BME280;2545;50.892;5.740;2023-05-11T07:01:25;56308.19;;;-142.21;100.00
5053;BME280;2545;50.892;5.740;2023-05-11T07:03:53;56310.13;;;-142.21;100.00
5053;BME280;2545;50.892;5.740;2023-05-11T07:06:18;56331.72;;;-142.21;100.00
5053;BME280;2545;50.892;5.740;2023-05-11T07:08:44;56341.53;;;-142.21;100.00
5053;BME280;2545;50.892;5.740;2023-05-11T07:11:09;56304.25;;;-142.21;100.00
5053;BME280;2545;50.892;5.740;2023-05-11T07:13:37;56323.88;;;-142.21;100.00
5053;BME280;2545;50.892;5.740;2023-05-11T07:16:02;56327.78;;;-142.21;100.00
5053;BME280;2545;50.892;5.740;2023-05-11T07:18:27;56298.38;;;-142.21;100.00
5053;BME280;2545;50.892;5.740;2023-05-11T07:20:53;56335.63;;;-142.21;100.00
5053;BME280;2545;50.892;5.740;2023-05-11T07:23:18;56317.97;;;-142.21;100.00
5053;BME280;2545;50.892;5.740;2023-05-11T07:25:43;56319.94;;;-142.21;100.00
5053;BME280;2545;50.892;5.740;2023-05-11T07:28:09;56294.47;;;-142.21;100.00
5053;BME280;2545;50.892;5.740;2023-05-11T07:30:34;56306.22;;;-142.21;100.00
5053;BME280;2545;50.892;5.740;2023-05-11T07:32:59;56310.13;;;-142.21;100.00
5053;BME280;2545;50.892;5.740;2023-05-11T07:35:25;56323.88;;;-142.21;100.00
5053;BME280;2545;50.892;5.740;2023-05-11T07:37:51;56294.47;;;-142.21;100.00
5053;BME280;2545;50.892;5.740;2023-05-11T07:40:16;56316.03;;;-142.21;100.00
5053;BME280;2545;50.892;5.740;2023-05-11T07:42:41;56347.41;;;-142.21;100.00
5053;BME280;2545;50.892;5.740;2023-05-11T07:45:07;56304.25;;;-142.21;100.00
5053;BME280;2545;50.892;5.740;2023-05-11T07:47:32;56323.88;;;-142.21;100.00
5053;BME280;2545;50.892;5.740;2023-05-11T07:49:58;56343.47;;;-142.21;100.00
5053;BME280;2545;50.892;5.740;2023-05-11T07:52:23;56282.69;;;-142.21;100.00
5053;BME280;2545;50.892;5.740;2023-05-11T07:54:48;56308.19;;;-142.21;100.00
5053;BME280;2545;50.892;5.740;2023-05-11T07:57:14;56331.72;;;-142.21;100.00
5053;BME280;2545;50.892;5.740;2023-05-11T07:59:39;56290.53;;;-142.21;100.00
5053;BME280;2545;50.892;5.740;2023-05-11T08:02:07;56310.13;;;-142.21;100.00
5053;BME280;2545;50.892;5.740;2023-05-11T08:04:33;56296.41;;;-142.21;100.00
5053;BME280;2545;50.892;5.740;2023-05-11T08:06:59;56284.66;;;-142.21;100.00
5053;BME280;2545;50.892;5.740;2023-05-11T08:09:24;56306.22;;;-142.21;100.00
5053;BME280;2545;50.892;5.740;2023-05-11T08:11:50;56327.78;;;-142.21;100.00
5053;BME280;2545;50.892;5.740;2023-05-11T08:14:15;56288.56;;;-142.21;100.00
5053;BME280;2545;50.892;5.740;2023-05-11T08:16:41;56290.53;;;-142.21;100.00
5053;BME280;2545;50.892;5.740;2023-05-11T08:19:07;56304.25;;;-142.21;100.00
5053;BME280;2545;50.892;5.740;2023-05-11T08:21:32;56274.84;;;-142.21;100.00
5053;BME280;2545;50.892;5.740;2023-05-11T08:23:57;56323.88;;;-142.21;100.00
5053;BME280;2545;50.892;5.740;2023-05-11T08:26:23;56335.63;;;-142.21;100.00
5053;BME280;2545;50.892;5.740;2023-05-11T08:28:48;56325.84;;;-142.21;100.00
5053;BME280;2545;50.892;5.740;2023-05-11T08:31:16;56298.38;;;-142.21;100.00
5053;BME280;2545;50.892;5.740;2023-05-11T08:33:43;56319.94;;;-142.21;100.00
5053;BME280;2545;50.892;5.740;2023-05-11T08:36:08;56314.06;;;-142.21;99.21
5053;BME280;2545;50.892;5.740;2023-05-11T08:38:34;56308.19;;;-142.21;99.50
5053;BME280;2545;50.892;5.740;2023-05-11T08:41:01;56302.28;;;-142.21;100.00
5053;BME280;2545;50.892;5.740;2023-05-11T08:43:27;56292.50;;;-142.21;98.29
5053;BME280;2545;50.892;5.740;2023-05-11T08:45:56;56286.63;;;-142.21;96.25
5053;BME280;2545;50.892;5.740;2023-05-11T08:48:24;56306.22;;;-142.21;90.76
5053;BME280;2545;50.892;5.740;2023-05-11T08:50:49;56286.63;;;-142.21;89.68
5053;BME280;2545;50.892;5.740;2023-05-11T08:53:15;56263.06;;;-142.21;93.28
5053;BME280;2545;50.892;5.740;2023-05-11T08:55:41;56263.06;;;-142.21;92.37
5053;BME280;2545;50.892;5.740;2023-05-11T08:58:08;56294.47;;;-142.21;91.95
5053;BME280;2545;50.892;5.740;2023-05-11T09:00:34;56302.28;;;-142.21;90.12
5053;BME280;2545;50.892;5.740;2023-05-11T09:03:00;56280.72;;;-142.21;89.85
5053;BME280;2545;50.892;5.740;2023-05-11T09:05:26;56284.66;;;-142.21;91.27
5053;BME280;2545;50.892;5.740;2023-05-11T09:07:54;56294.47;;;-142.21;95.17
5053;BME280;2545;50.892;5.740;2023-05-11T09:10:21;56284.66;;;-142.21;94.44
5053;BME280;2545;50.892;5.740;2023-05-11T09:12:46;56270.91;;;-142.21;91.24
5053;BME280;2545;50.892;5.740;2023-05-11T09:15:11;56288.56;;;-142.21;89.79
5053;BME280;2545;50.892;5.740;2023-05-11T09:17:37;56300.34;;;-142.21;86.81
5053;BME280;2545;50.892;5.740;2023-05-11T09:20:04;56274.84;;;-142.21;86.54
5053;BME280;2545;50.892;5.740;2023-05-11T09:22:50;56290.53;;;-142.21;84.39
5053;BME280;2545;50.892;5.740;2023-05-11T09:25:16;56300.34;;;-142.21;79.26
5053;BME280;2545;50.892;5.740;2023-05-11T09:27:45;56272.88;;;-142.21;76.46
5053;BME280;2545;50.892;5.740;2023-05-11T09:30:18;56276.81;;;-142.21;73.61
5053;BME280;2545;50.892;5.740;2023-05-11T09:38:15;56268.97;;;-142.21;68.17
5053;BME280;2545;50.892;5.740;2023-05-11T09:40:54;56237.59;;;-142.21;69.20
5053;BME280;2545;50.892;5.740;2023-05-11T09:43:24;56259.16;;;-142.21;67.10
5053;BME280;2545;50.892;5.740;2023-05-11T09:45:52;56304.25;;;-142.21;67.26
5053;BME280;2545;50.892;5.740;2023-05-11T09:50:44;56257.19;;;-142.21;64.68
5053;BME280;2545;50.892;5.740;2023-05-11T09:53:10;56249.34;;;-142.21;64.81
5053;BME280;2545;50.892;5.740;2023-05-11T09:55:35;56274.84;;;-142.21;63.63
5053;BME280;2545;50.892;5.740;2023-05-11T09:58:01;56249.34;;;-142.21;64.42
5053;BME280;2545;50.892;5.740;2023-05-11T10:00:26;56249.34;;;-142.21;63.92
5053;BME280;2545;50.892;5.740;2023-05-11T10:03:03;56229.75;;;-142.21;63.37
5053;BME280;2545;50.892;5.740;2023-05-11T10:05:34;56253.28;;;-142.21;63.79
5053;BME280;2545;50.892;5.740;2023-05-11T10:08:02;56243.47;;;-142.21;63.40
5053;BME280;2545;50.892;5.740;2023-05-11T10:10:29;56255.22;;;-142.21;63.42
5053;BME280;2545;50.892;5.740;2023-05-11T10:12:57;56268.97;;;-142.21;63.61
5053;BME280;2545;50.892;5.740;2023-05-11T10:15:23;56261.13;;;-142.21;65.68
5053;BME280;2545;50.892;5.740;2023-05-11T10:17:52;56241.50;;;-142.21;66.31
5053;BME280;2545;50.892;5.740;2023-05-11T10:20:19;56221.91;;;-142.21;64.21
5053;BME280;2545;50.892;5.740;2023-05-11T10:22:45;56241.50;;;-142.21;64.10
5053;BME280;2545;50.892;5.740;2023-05-11T10:25:10;56253.28;;;-142.21;64.50
5053;BME280;2545;50.892;5.740;2023-05-11T10:27:36;56268.97;;;-142.21;63.59
5053;BME280;2545;50.892;5.740;2023-05-11T10:30:02;56237.59;;;-142.21;62.64
5053;BME280;2545;50.892;5.740;2023-05-11T10:32:28;56259.16;;;-142.21;62.19
5053;BME280;2545;50.892;5.740;2023-05-11T10:34:55;56210.13;;;-142.21;59.58
5053;BME280;2545;50.892;5.740;2023-05-11T10:37:21;56223.84;;;-142.21;59.77
5053;BME280;2545;50.892;5.740;2023-05-11T10:39:47;56247.38;;;-142.21;57.77
5053;BME280;2545;50.892;5.740;2023-05-11T10:45:14;56243.47;;;-142.21;63.67
5053;BME280;2545;50.892;5.740;2023-05-11T11:01:41;56176.78;;;-142.21;58.32
5053;BME280;2545;50.892;5.740;2023-05-11T11:04:08;56253.28;;;-142.21;56.36
5053;BME280;2545;50.892;5.740;2023-05-11T11:06:36;56257.19;;;-142.21;56.16
5053;BME280;2545;50.892;5.740;2023-05-11T11:09:03;56255.22;;;-142.21;58.05
5053;BME280;2545;50.892;5.740;2023-05-11T11:11:37;56245.44;;;-142.21;58.12
5053;BME280;2545;50.892;5.740;2023-05-11T11:14:04;56241.50;;;-142.21;58.26
5053;BME280;2545;50.892;5.740;2023-05-11T11:16:34;56237.59;;;-142.21;57.37
5053;BME280;2545;50.892;5.740;2023-05-11T11:21:56;56263.06;;;-142.21;55.20
5053;BME280;2545;50.892;5.740;2023-05-11T11:27:03;56194.44;;;-142.21;56.75
5053;BME280;2545;50.892;5.740;2023-05-11T11:29:29;56216.00;;;-142.21;50.58
5053;BME280;2545;50.892;5.740;2023-05-11T11:31:55;56206.22;;;-142.21;49.43
5053;BME280;2545;50.892;5.740;2023-05-11T11:34:40;56214.06;;;-142.21;48.28
5053;BME280;2545;50.892;5.740;2023-05-11T11:37:06;56212.09;;;-142.21;46.92
5053;BME280;2545;50.892;5.740;2023-05-11T11:42:17;56227.78;;;-142.21;52.49
5053;BME280;2545;50.892;5.740;2023-05-11T11:44:44;56253.28;;;-142.21;54.19
5053;BME280;2545;50.892;5.740;2023-05-11T11:47:20;56227.78;;;-142.21;53.11
5053;BME280;2545;50.892;5.740;2023-05-11T11:52:12;56214.06;;;-142.21;50.45
5053;BME280;2545;50.892;5.740;2023-05-11T11:54:40;56178.75;;;-142.21;50.95
5053;BME280;2545;50.892;5.740;2023-05-11T11:59:59;56192.50;;;-142.21;48.46
5053;BME280;2545;50.892;5.740;2023-05-11T12:02:25;56219.94;;;-142.21;47.86
5053;BME280;2545;50.892;5.740;2023-05-11T12:05:12;56219.94;;;-142.21;48.97
5053;BME280;2545;50.892;5.740;2023-05-11T12:07:46;56233.66;;;-142.21;49.30
5053;BME280;2545;50.892;5.740;2023-05-11T12:10:13;56206.22;;;-142.21;49.35
5053;BME280;2545;50.892;5.740;2023-05-11T12:12:39;56206.22;;;-142.21;49.78
5053;BME280;2545;50.892;5.740;2023-05-11T12:15:07;56219.94;;;-142.21;49.67
5053;BME280;2545;50.892;5.740;2023-05-11T12:17:37;56172.88;;;-142.21;46.20
5053;BME280;2545;50.892;5.740;2023-05-11T12:20:13;56176.78;;;-142.21;45.46
5053;BME280;2545;50.892;5.740;2023-05-11T12:22:39;56212.09;;;-142.21;44.27
5053;BME280;2545;50.892;5.740;2023-05-11T12:25:06;56221.91;;;-142.21;46.70
5053;BME280;2545;50.892;5.740;2023-05-11T12:27:32;56206.22;;;-142.21;45.47
5053;BME280;2545;50.892;5.740;2023-05-11T12:29:57;56165.03;;;-142.21;42.24
5053;BME280;2545;50.892;5.740;2023-05-11T12:32:28;56200.34;;;-142.21;42.60
5053;BME280;2545;50.892;5.740;2023-05-11T12:35:03;56163.06;;;-142.21;42.32
5053;BME280;2545;50.892;5.740;2023-05-11T12:37:30;56168.97;;;-142.21;41.63
5053;BME280;2545;50.892;5.740;2023-05-11T12:39:56;56149.34;;;-142.21;41.31
5053;BME280;2545;50.892;5.740;2023-05-11T12:42:21;56129.75;;;-142.21;40.44
5053;BME280;2545;50.892;5.740;2023-05-11T12:44:47;56139.53;;;-142.21;39.51
5053;BME280;2545;50.892;5.740;2023-05-11T12:47:13;56174.84;;;-142.21;40.64
5053;BME280;2545;50.892;5.740;2023-05-11T12:49:40;56139.53;;;-142.21;40.44
5053;BME280;2545;50.892;5.740;2023-05-11T12:52:06;56153.28;;;-142.21;39.94
5053;BME280;2545;50.892;5.740;2023-05-11T12:54:35;56167.00;;;-142.21;40.51
5053;BME280;2545;50.892;5.740;2023-05-11T12:57:03;56165.03;;;-142.21;43.28
5053;BME280;2545;50.892;5.740;2023-05-11T13:02:18;56155.22;;;-142.21;44.80
5053;BME280;2545;50.892;5.740;2023-05-11T13:04:44;56172.88;;;-142.21;47.13
5053;BME280;2545;50.892;5.740;2023-05-11T13:07:11;56200.34;;;-142.21;42.75
5053;BME280;2545;50.892;5.740;2023-05-11T13:09:38;56157.19;;;-142.21;42.81
5053;BME280;2545;50.892;5.740;2023-05-11T13:14:35;56165.03;;;-142.21;43.76
5053;BME280;2545;50.892;5.740;2023-05-11T13:17:01;56172.88;;;-142.21;49.12
5053;BME280;2545;50.892;5.740;2023-05-11T13:19:27;56208.16;;;-142.21;44.64
5053;BME280;2545;50.892;5.740;2023-05-11T13:21:54;56204.25;;;-142.21;43.57
5053;BME280;2545;50.892;5.740;2023-05-11T13:24:21;56149.34;;;-142.21;42.08
5053;BME280;2545;50.892;5.740;2023-05-11T13:26:47;56167.00;;;-142.21;41.31
5053;BME280;2545;50.892;5.740;2023-05-11T13:29:12;56161.13;;;-142.21;39.88
5053;BME280;2545;50.892;5.740;2023-05-11T13:31:48;56186.59;;;-142.21;40.10
5053;BME280;2545;50.892;5.740;2023-05-11T13:34:14;56145.44;;;-142.21;40.94
5053;BME280;2545;50.892;5.740;2023-05-11T13:36:39;56110.13;;;-142.21;41.31
5053;BME280;2545;50.892;5.740;2023-05-11T13:39:05;56178.75;;;-142.21;41.15
5053;BME280;2545;50.892;5.740;2023-05-11T13:41:31;56178.75;;;-142.21;45.94
5053;BME280;2545;50.892;5.740;2023-05-11T13:43:56;56186.59;;;-142.21;44.67
5053;BME280;2545;50.892;5.740;2023-05-11T13:46:22;56131.69;;;-142.21;42.57